sensor_id;sensor_type;location;lat;lon;timestamp;P1;durP1;ratioP1;P2;durP2;ratioP2
6834;SDS011;3455;42.150;24.734;2023-02-28T00:02:25;12.80;;;7.50;;
6834;SDS011;3455;42.150;24.734;2023-02-28T00:04:52;14.23;;;8.57;;
6834;SDS011;3455;42.150;24.734;2023-02-28T00:07:27;9.93;;;7.83;;
6834;SDS011;3455;42.150;24.734;2023-02-28T00:09:54;14.23;;;7.70;;
6834;SDS011;3455;42.150;24.734;2023-02-28T00:12:21;15.77;;;7.93;;
6834;SDS011;3455;42.150;24.734;2023-02-28T00:14:47;12.07;;;8.20;;
6834;SDS011;3455;42.150;24.734;2023-02-28T00:17:14;8.60;;;7.80;;
6834;SDS011;3455;42.150;24.734;2023-02-28T00:19:42;8.03;;;7.27;;
6834;SDS011;3455;42.150;24.734;2023-02-28T00:22:09;8.60;;;7.43;;
6834;SDS011;3455;42.150;24.734;2023-02-28T00:24:38;10.30;;;8.47;;
6834;SDS011;3455;42.150;24.734;2023-02-28T00:27:04;10.13;;;7.90;;
6834;SDS011;3455;42.150;24.734;2023-02-28T00:29:31;8.67;;;7.50;;
6834;SDS011;3455;42.150;24.734;2023-02-28T00:31:58;14.27;;;7.27;;
6834;SDS011;3455;42.150;24.734;2023-02-28T00:34:24;9.27;;;7.10;;
6834;SDS011;3455;42.150;24.734;2023-02-28T00:36:51;9.60;;;7.57;;
6834;SDS011;3455;42.150;24.734;2023-02-28T00:39:18;11.10;;;9.53;;
6834;SDS011;3455;42.150;24.734;2023-02-28T00:41:46;12.03;;;7.83;;
6834;SDS011;3455;42.150;24.734;2023-02-28T00:44:12;10.00;;;7.37;;
6834;SDS011;3455;42.150;24.734;2023-02-28T00:46:39;11.87;;;7.80;;
6834;SDS011;3455;42.150;24.734;2023-02-28T00:49:06;11.40;;;8.40;;
6834;SDS011;3455;42.150;24.734;2023-02-28T00:51:33;15.67;;;7.87;;
6834;SDS011;3455;42.150;24.734;2023-02-28T00:53:59;8.90;;;7.90;;
6834;SDS011;3455;42.150;24.734;2023-02-28T00:56:26;14.87;;;8.53;;
6834;SDS011;3455;42.150;24.734;2023-02-28T00:58:54;9.73;;;7.80;;
6834;SDS011;3455;42.150;24.734;2023-02-28T01:01:21;12.93;;;8.23;;
6834;SDS011;3455;42.150;24.734;2023-02-28T01:03:47;11.43;;;8.13;;
6834;SDS011;3455;42.150;24.734;2023-02-28T01:06:14;11.73;;;7.90;;
6834;SDS011;3455;42.150;24.734;2023-02-28T01:08:41;12.87;;;8.37;;
6834;SDS011;3455;42.150;24.734;2023-02-28T01:11:08;11.00;;;8.47;;
6834;SDS011;3455;42.150;24.734;2023-02-28T01:13:36;8.50;;;7.73;;
6834;SDS011;3455;42.150;24.734;2023-02-28T01:16:04;8.97;;;8.07;;
6834;SDS011;3455;42.150;24.734;2023-02-28T01:18:32;15.20;;;7.90;;
6834;SDS011;3455;42.150;24.734;2023-02-28T01:21:02;11.77;;;8.17;;
6834;SDS011;3455;42.150;24.734;2023-02-28T01:23:30;9.87;;;7.47;;
6834;SDS011;3455;42.150;24.734;2023-02-28T01:25:57;9.03;;;7.43;;
6834;SDS011;3455;42.150;24.734;2023-02-28T01:28:23;12.03;;;7.73;;
6834;SDS011;3455;42.150;24.734;2023-02-28T01:30:50;12.13;;;7.90;;
6834;SDS011;3455;42.150;24.734;2023-02-28T01:33:19;8.80;;;7.87;;
6834;SDS011;3455;42.150;24.734;2023-02-28T01:35:45;11.47;;;7.50;;
6834;SDS011;3455;42.150;24.734;2023-02-28T01:38:12;16.63;;;7.67;;
6834;SDS011;3455;42.150;24.734;2023-02-28T01:40:39;9.73;;;8.10;;
6834;SDS011;3455;42.150;24.734;2023-02-28T01:43:08;8.17;;;6.90;;
6834;SDS011;3455;42.150;24.734;2023-02-28T01:45:46;8.33;;;7.63;;
6834;SDS011;3455;42.150;24.734;2023-02-28T01:48:13;11.13;;;6.83;;
6834;SDS011;3455;42.150;24.734;2023-02-28T01:50:42;11.27;;;7.13;;
6834;SDS011;3455;42.150;24.734;2023-02-28T01:53:12;9.47;;;7.00;;
6834;SDS011;3455;42.150;24.734;2023-02-28T01:55:42;12.23;;;7.27;;
6834;SDS011;3455;42.150;24.734;2023-02-28T01:58:13;11.07;;;7.27;;
6834;SDS011;3455;42.150;24.734;2023-02-28T02:00:40;10.33;;;6.90;;
6834;SDS011;3455;42.150;24.734;2023-02-28T02:03:08;7.80;;;6.67;;
6834;SDS011;3455;42.150;24.734;2023-02-28T02:05:37;11.37;;;6.90;;
6834;SDS011;3455;42.150;24.734;2023-02-28T02:08:08;9.67;;;6.47;;
6834;SDS011;3455;42.150;24.734;2023-02-28T02:10:39;11.83;;;7.47;;
6834;SDS011;3455;42.150;24.734;2023-02-28T02:16:18;10.97;;;6.63;;
6834;SDS011;3455;42.150;24.734;2023-02-28T02:18:59;8.60;;;6.03;;
6834;SDS011;3455;42.150;24.734;2023-02-28T02:21:54;12.57;;;7.00;;
6834;SDS011;3455;42.150;24.734;2023-02-28T02:24:57;16.57;;;7.97;;
6834;SDS011;3455;42.150;24.734;2023-02-28T02:30:46;13.57;;;7.60;;
6834;SDS011;3455;42.150;24.734;2023-02-28T02:36:42;12.80;;;7.37;;
6834;SDS011;3455;42.150;24.734;2023-02-28T02:39:16;16.10;;;7.13;;
6834;SDS011;3455;42.150;24.734;2023-02-28T02:41:46;8.60;;;7.53;;
6834;SDS011;3455;42.150;24.734;2023-02-28T02:44:18;10.00;;;8.10;;
6834;SDS011;3455;42.150;24.734;2023-02-28T02:46:50;14.53;;;7.60;;
6834;SDS011;3455;42.150;24.734;2023-02-28T02:49:21;15.57;;;7.67;;
6834;SDS011;3455;42.150;24.734;2023-02-28T02:51:52;11.70;;;8.27;;
6834;SDS011;3455;42.150;24.734;2023-02-28T02:54:22;17.67;;;9.60;;
6834;SDS011;3455;42.150;24.734;2023-02-28T02:56:53;12.40;;;8.23;;
6834;SDS011;3455;42.150;24.734;2023-02-28T02:59:24;11.50;;;9.07;;
6834;SDS011;3455;42.150;24.734;2023-02-28T03:01:54;12.60;;;8.60;;
6834;SDS011;3455;42.150;24.734;2023-02-28T03:04:26;13.13;;;8.50;;
6834;SDS011;3455;42.150;24.734;2023-02-28T03:06:57;10.07;;;8.90;;
6834;SDS011;3455;42.150;24.734;2023-02-28T03:09:24;12.97;;;8.83;;
6834;SDS011;3455;42.150;24.734;2023-02-28T03:11:53;12.53;;;8.73;;
6834;SDS011;3455;42.150;24.734;2023-02-28T03:14:25;16.40;;;9.67;;
6834;SDS011;3455;42.150;24.734;2023-02-28T03:17:08;18.40;;;10.00;;
6834;SDS011;3455;42.150;24.734;2023-02-28T03:19:53;14.23;;;9.40;;
6834;SDS011;3455;42.150;24.734;2023-02-28T03:22:40;15.10;;;10.73;;
6834;SDS011;3455;42.150;24.734;2023-02-28T03:25:17;17.10;;;11.00;;
6834;SDS011;3455;42.150;24.734;2023-02-28T03:27:54;11.43;;;8.43;;
6834;SDS011;3455;42.150;24.734;2023-02-28T03:30:27;12.03;;;9.43;;
6834;SDS011;3455;42.150;24.734;2023-02-28T03:33:02;12.83;;;9.87;;
6834;SDS011;3455;42.150;24.734;2023-02-28T03:35:36;14.00;;;10.80;;
6834;SDS011;3455;42.150;24.734;2023-02-28T03:38:07;15.87;;;10.40;;
6834;SDS011;3455;42.150;24.734;2023-02-28T03:40:41;18.50;;;10.63;;
6834;SDS011;3455;42.150;24.734;2023-02-28T03:43:12;24.70;;;11.97;;
6834;SDS011;3455;42.150;24.734;2023-02-28T03:45:43;12.90;;;10.63;;
6834;SDS011;3455;42.150;24.734;2023-02-28T03:48:15;13.00;;;10.93;;
6834;SDS011;3455;42.150;24.734;2023-02-28T03:50:50;18.20;;;11.63;;
6834;SDS011;3455;42.150;24.734;2023-02-28T03:53:21;14.90;;;11.10;;
6834;SDS011;3455;42.150;24.734;2023-02-28T03:55:53;16.77;;;11.47;;
6834;SDS011;3455;42.150;24.734;2023-02-28T03:58:24;12.67;;;11.20;;
6834;SDS011;3455;42.150;24.734;2023-02-28T04:00:58;13.70;;;10.50;;
6834;SDS011;3455;42.150;24.734;2023-02-28T04:03:33;13.00;;;10.63;;
6834;SDS011;3455;42.150;24.734;2023-02-28T04:06:02;13.57;;;11.90;;
6834;SDS011;3455;42.150;24.734;2023-02-28T04:08:30;15.53;;;12.10;;
6834;SDS011;3455;42.150;24.734;2023-02-28T04:10:57;15.23;;;10.70;;
6834;SDS011;3455;42.150;24.734;2023-02-28T04:13:29;13.97;;;11.90;;
6834;SDS011;3455;42.150;24.734;2023-02-28T04:15:56;17.57;;;11.77;;
6834;SDS011;3455;42.150;24.734;2023-02-28T04:18:23;14.33;;;11.77;;
6834;SDS011;3455;42.150;24.734;2023-02-28T04:20:49;12.93;;;11.47;;
6834;SDS011;3455;42.150;24.734;2023-02-28T04:23:17;14.10;;;11.30;;
6834;SDS011;3455;42.150;24.734;2023-02-28T04:25:44;17.40;;;11.20;;
6834;SDS011;3455;42.150;24.734;2023-02-28T04:28:11;21.73;;;11.80;;
6834;SDS011;3455;42.150;24.734;2023-02-28T04:30:37;18.00;;;12.40;;
6834;SDS011;3455;42.150;24.734;2023-02-28T04:33:05;13.53;;;11.30;;
6834;SDS011;3455;42.150;24.734;2023-02-28T04:35:32;14.70;;;10.43;;
6834;SDS011;3455;42.150;24.734;2023-02-28T04:37:59;13.30;;;10.80;;
6834;SDS011;3455;42.150;24.734;2023-02-28T04:40:27;14.27;;;11.37;;
6834;SDS011;3455;42.150;24.734;2023-02-28T04:42:53;13.83;;;10.40;;
6834;SDS011;3455;42.150;24.734;2023-02-28T04:45:20;13.40;;;10.33;;
6834;SDS011;3455;42.150;24.734;2023-02-28T04:47:47;12.03;;;10.20;;
6834;SDS011;3455;42.150;24.734;2023-02-28T04:50:14;17.13;;;10.43;;
6834;SDS011;3455;42.150;24.734;2023-02-28T04:52:41;18.50;;;11.27;;
6834;SDS011;3455;42.150;24.734;2023-02-28T04:55:08;13.97;;;11.20;;
6834;SDS011;3455;42.150;24.734;2023-02-28T04:57:36;13.40;;;10.63;;
6834;SDS011;3455;42.150;24.734;2023-02-28T05:00:03;13.00;;;11.17;;
6834;SDS011;3455;42.150;24.734;2023-02-28T05:02:36;16.40;;;12.77;;
6834;SDS011;3455;42.150;24.734;2023-02-28T05:05:03;16.77;;;11.83;;
6834;SDS011;3455;42.150;24.734;2023-02-28T05:07:30;19.50;;;14.43;;
6834;SDS011;3455;42.150;24.734;2023-02-28T05:09:57;14.37;;;12.10;;
6834;SDS011;3455;42.150;24.734;2023-02-28T05:12:24;15.13;;;13.60;;
6834;SDS011;3455;42.150;24.734;2023-02-28T05:14:52;15.53;;;13.93;;
6834;SDS011;3455;42.150;24.734;2023-02-28T05:17:19;14.80;;;12.63;;
6834;SDS011;3455;42.150;24.734;2023-02-28T05:19:46;11.97;;;10.70;;
6834;SDS011;3455;42.150;24.734;2023-02-28T05:22:13;12.63;;;10.63;;
6834;SDS011;3455;42.150;24.734;2023-02-28T05:24:41;13.43;;;11.17;;
6834;SDS011;3455;42.150;24.734;2023-02-28T05:27:08;16.37;;;11.17;;
6834;SDS011;3455;42.150;24.734;2023-02-28T05:29:35;14.87;;;11.17;;
6834;SDS011;3455;42.150;24.734;2023-02-28T05:32:08;13.43;;;10.70;;
6834;SDS011;3455;42.150;24.734;2023-02-28T05:34:36;11.37;;;10.23;;
6834;SDS011;3455;42.150;24.734;2023-02-28T05:37:03;14.00;;;10.97;;
6834;SDS011;3455;42.150;24.734;2023-02-28T05:39:30;15.27;;;10.90;;
6834;SDS011;3455;42.150;24.734;2023-02-28T05:41:57;13.40;;;11.10;;
6834;SDS011;3455;42.150;24.734;2023-02-28T05:44:24;11.63;;;9.70;;
6834;SDS011;3455;42.150;24.734;2023-02-28T05:46:51;13.27;;;10.63;;
6834;SDS011;3455;42.150;24.734;2023-02-28T05:49:19;17.20;;;11.90;;
6834;SDS011;3455;42.150;24.734;2023-02-28T05:51:45;18.63;;;12.40;;
6834;SDS011;3455;42.150;24.734;2023-02-28T05:54:12;17.80;;;12.87;;
6834;SDS011;3455;42.150;24.734;2023-02-28T05:56:39;17.07;;;12.10;;
6834;SDS011;3455;42.150;24.734;2023-02-28T05:59:09;12.87;;;11.57;;
6834;SDS011;3455;42.150;24.734;2023-02-28T06:01:36;12.83;;;11.00;;
6834;SDS011;3455;42.150;24.734;2023-02-28T06:04:05;13.67;;;10.50;;
6834;SDS011;3455;42.150;24.734;2023-02-28T06:06:35;13.97;;;11.10;;
6834;SDS011;3455;42.150;24.734;2023-02-28T06:09:02;16.00;;;12.47;;
6834;SDS011;3455;42.150;24.734;2023-02-28T06:11:30;14.83;;;10.57;;
6834;SDS011;3455;42.150;24.734;2023-02-28T06:13:57;14.30;;;12.57;;
6834;SDS011;3455;42.150;24.734;2023-02-28T06:16:26;15.53;;;11.47;;
6834;SDS011;3455;42.150;24.734;2023-02-28T06:18:53;14.90;;;11.53;;
6834;SDS011;3455;42.150;24.734;2023-02-28T06:21:21;15.53;;;12.40;;
6834;SDS011;3455;42.150;24.734;2023-02-28T06:23:50;13.07;;;11.67;;
6834;SDS011;3455;42.150;24.734;2023-02-28T06:26:17;18.00;;;12.77;;
6834;SDS011;3455;42.150;24.734;2023-02-28T06:28:45;17.07;;;11.53;;
6834;SDS011;3455;42.150;24.734;2023-02-28T06:31:13;15.67;;;12.10;;
6834;SDS011;3455;42.150;24.734;2023-02-28T06:33:42;14.27;;;12.87;;
6834;SDS011;3455;42.150;24.734;2023-02-28T06:36:10;20.83;;;14.53;;
6834;SDS011;3455;42.150;24.734;2023-02-28T06:38:37;23.90;;;14.27;;
6834;SDS011;3455;42.150;24.734;2023-02-28T06:41:06;13.03;;;10.73;;
6834;SDS011;3455;42.150;24.734;2023-02-28T06:43:34;13.70;;;11.27;;
6834;SDS011;3455;42.150;24.734;2023-02-28T06:46:04;14.50;;;11.47;;
6834;SDS011;3455;42.150;24.734;2023-02-28T06:48:32;12.03;;;10.83;;
6834;SDS011;3455;42.150;24.734;2023-02-28T06:51:03;17.50;;;12.47;;
6834;SDS011;3455;42.150;24.734;2023-02-28T06:53:31;13.20;;;11.63;;
6834;SDS011;3455;42.150;24.734;2023-02-28T06:55:58;16.83;;;12.57;;
6834;SDS011;3455;42.150;24.734;2023-02-28T06:58:26;16.53;;;11.53;;
6834;SDS011;3455;42.150;24.734;2023-02-28T07:00:52;20.73;;;13.73;;
6834;SDS011;3455;42.150;24.734;2023-02-28T07:03:19;17.97;;;12.20;;
6834;SDS011;3455;42.150;24.734;2023-02-28T07:05:46;13.10;;;11.83;;
6834;SDS011;3455;42.150;24.734;2023-02-28T07:08:13;14.33;;;12.70;;
6834;SDS011;3455;42.150;24.734;2023-02-28T07:10:40;24.03;;;14.77;;
6834;SDS011;3455;42.150;24.734;2023-02-28T07:13:07;20.80;;;13.23;;
6834;SDS011;3455;42.150;24.734;2023-02-28T07:15:36;15.43;;;13.13;;
6834;SDS011;3455;42.150;24.734;2023-02-28T07:18:03;15.07;;;12.93;;
6834;SDS011;3455;42.150;24.734;2023-02-28T07:20:31;14.07;;;12.23;;
6834;SDS011;3455;42.150;24.734;2023-02-28T07:22:57;17.77;;;13.53;;
6834;SDS011;3455;42.150;24.734;2023-02-28T07:25:25;15.27;;;13.47;;
6834;SDS011;3455;42.150;24.734;2023-02-28T07:27:53;17.70;;;12.43;;
6834;SDS011;3455;42.150;24.734;2023-02-28T07:30:20;17.20;;;12.53;;
6834;SDS011;3455;42.150;24.734;2023-02-28T07:32:48;17.93;;;13.67;;
6834;SDS011;3455;42.150;24.734;2023-02-28T07:35:15;17.90;;;12.60;;
6834;SDS011;3455;42.150;24.734;2023-02-28T07:37:41;14.50;;;11.57;;
6834;SDS011;3455;42.150;24.734;2023-02-28T07:40:09;20.53;;;13.77;;
6834;SDS011;3455;42.150;24.734;2023-02-28T07:42:37;14.90;;;13.03;;
6834;SDS011;3455;42.150;24.734;2023-02-28T07:45:05;22.80;;;14.47;;
6834;SDS011;3455;42.150;24.734;2023-02-28T07:47:35;25.57;;;15.53;;
6834;SDS011;3455;42.150;24.734;2023-02-28T07:50:03;22.17;;;15.53;;
6834;SDS011;3455;42.150;24.734;2023-02-28T07:52:31;24.97;;;15.87;;
6834;SDS011;3455;42.150;24.734;2023-02-28T07:54:58;17.67;;;14.23;;
6834;SDS011;3455;42.150;24.734;2023-02-28T07:57:25;22.70;;;14.70;;
6834;SDS011;3455;42.150;24.734;2023-02-28T07:59:51;20.77;;;15.90;;
6834;SDS011;3455;42.150;24.734;2023-02-28T08:02:18;20.30;;;14.27;;
6834;SDS011;3455;42.150;24.734;2023-02-28T08:04:45;21.60;;;14.30;;
6834;SDS011;3455;42.150;24.734;2023-02-28T08:07:14;17.23;;;14.27;;
6834;SDS011;3455;42.150;24.734;2023-02-28T08:09:43;19.73;;;14.20;;
6834;SDS011;3455;42.150;24.734;2023-02-28T08:12:11;21.03;;;14.87;;
6834;SDS011;3455;42.150;24.734;2023-02-28T08:14:38;24.53;;;16.60;;
6834;SDS011;3455;42.150;24.734;2023-02-28T08:17:05;25.03;;;16.97;;
6834;SDS011;3455;42.150;24.734;2023-02-28T08:19:32;26.53;;;16.43;;
6834;SDS011;3455;42.150;24.734;2023-02-28T08:21:59;24.70;;;16.47;;
6834;SDS011;3455;42.150;24.734;2023-02-28T08:24:27;23.57;;;16.37;;
6834;SDS011;3455;42.150;24.734;2023-02-28T08:26:54;22.20;;;15.93;;
6834;SDS011;3455;42.150;24.734;2023-02-28T08:29:21;25.53;;;15.30;;
6834;SDS011;3455;42.150;24.734;2023-02-28T08:31:48;24.97;;;16.00;;
6834;SDS011;3455;42.150;24.734;2023-02-28T08:34:15;26.73;;;15.80;;
6834;SDS011;3455;42.150;24.734;2023-02-28T08:36:42;22.17;;;14.37;;
6834;SDS011;3455;42.150;24.734;2023-02-28T08:39:10;21.13;;;16.23;;
6834;SDS011;3455;42.150;24.734;2023-02-28T08:41:38;27.07;;;15.27;;
6834;SDS011;3455;42.150;24.734;2023-02-28T08:44:06;23.73;;;16.13;;
6834;SDS011;3455;42.150;24.734;2023-02-28T08:46:33;26.30;;;17.10;;
6834;SDS011;3455;42.150;24.734;2023-02-28T08:48:59;29.00;;;17.50;;
6834;SDS011;3455;42.150;24.734;2023-02-28T08:51:27;20.83;;;16.63;;
6834;SDS011;3455;42.150;24.734;2023-02-28T08:53:54;19.27;;;16.90;;
6834;SDS011;3455;42.150;24.734;2023-02-28T08:56:24;21.97;;;16.00;;
6834;SDS011;3455;42.150;24.734;2023-02-28T08:58:53;19.10;;;15.27;;
6834;SDS011;3455;42.150;24.734;2023-02-28T09:01:22;19.80;;;15.97;;
6834;SDS011;3455;42.150;24.734;2023-02-28T09:03:51;24.40;;;16.10;;
6834;SDS011;3455;42.150;24.734;2023-02-28T09:06:19;19.17;;;16.97;;
6834;SDS011;3455;42.150;24.734;2023-02-28T09:08:48;24.37;;;16.27;;
6834;SDS011;3455;42.150;24.734;2023-02-28T09:11:15;18.00;;;15.80;;
6834;SDS011;3455;42.150;24.734;2023-02-28T09:13:44;19.87;;;16.87;;
6834;SDS011;3455;42.150;24.734;2023-02-28T09:16:13;23.10;;;16.33;;
6834;SDS011;3455;42.150;24.734;2023-02-28T09:18:42;21.23;;;17.50;;
6834;SDS011;3455;42.150;24.734;2023-02-28T09:21:10;20.80;;;16.03;;
6834;SDS011;3455;42.150;24.734;2023-02-28T09:23:39;20.13;;;17.47;;
6834;SDS011;3455;42.150;24.734;2023-02-28T09:26:05;19.33;;;16.03;;
6834;SDS011;3455;42.150;24.734;2023-02-28T09:28:33;21.00;;;15.37;;
6834;SDS011;3455;42.150;24.734;2023-02-28T09:31:00;18.77;;;16.17;;
6834;SDS011;3455;42.150;24.734;2023-02-28T09:33:31;16.93;;;15.17;;
6834;SDS011;3455;42.150;24.734;2023-02-28T09:35:59;22.53;;;16.90;;
6834;SDS011;3455;42.150;24.734;2023-02-28T09:38:27;20.00;;;16.60;;
6834;SDS011;3455;42.150;24.734;2023-02-28T09:40:55;20.37;;;15.47;;
6834;SDS011;3455;42.150;24.734;2023-02-28T09:43:25;22.57;;;16.50;;
6834;SDS011;3455;42.150;24.734;2023-02-28T09:45:54;21.23;;;16.47;;
6834;SDS011;3455;42.150;24.734;2023-02-28T09:48:28;17.97;;;15.87;;
6834;SDS011;3455;42.150;24.734;2023-02-28T09:51:00;26.03;;;16.10;;
6834;SDS011;3455;42.150;24.734;2023-02-28T09:53:32;19.53;;;15.57;;
6834;SDS011;3455;42.150;24.734;2023-02-28T09:56:01;19.33;;;15.23;;
6834;SDS011;3455;42.150;24.734;2023-02-28T09:58:33;20.33;;;15.47;;
6834;SDS011;3455;42.150;24.734;2023-02-28T10:01:09;17.33;;;14.70;;
6834;SDS011;3455;42.150;24.734;2023-02-28T10:03:47;19.37;;;15.40;;
6834;SDS011;3455;42.150;24.734;2023-02-28T10:06:23;19.77;;;17.67;;
6834;SDS011;3455;42.150;24.734;2023-02-28T10:08:56;21.47;;;18.67;;
6834;SDS011;3455;42.150;24.734;2023-02-28T10:11:28;24.70;;;18.40;;
6834;SDS011;3455;42.150;24.734;2023-02-28T10:13:59;22.53;;;17.70;;
6834;SDS011;3455;42.150;24.734;2023-02-28T10:16:31;26.33;;;18.27;;
6834;SDS011;3455;42.150;24.734;2023-02-28T10:19:04;23.83;;;18.67;;
6834;SDS011;3455;42.150;24.734;2023-02-28T10:21:38;31.50;;;19.43;;
6834;SDS011;3455;42.150;24.734;2023-02-28T10:24:13;26.83;;;17.97;;
6834;SDS011;3455;42.150;24.734;2023-02-28T10:26:47;21.47;;;18.43;;
6834;SDS011;3455;42.150;24.734;2023-02-28T10:29:14;30.33;;;19.93;;
6834;SDS011;3455;42.150;24.734;2023-02-28T10:31:41;26.87;;;20.10;;
6834;SDS011;3455;42.150;24.734;2023-02-28T10:34:12;27.23;;;20.00;;
6834;SDS011;3455;42.150;24.734;2023-02-28T10:36:39;25.37;;;18.47;;
6834;SDS011;3455;42.150;24.734;2023-02-28T10:42:03;35.00;;;21.57;;
6834;SDS011;3455;42.150;24.734;2023-02-28T10:44:31;27.87;;;19.10;;
6834;SDS011;3455;42.150;24.734;2023-02-28T10:46:58;34.50;;;21.30;;
6834;SDS011;3455;42.150;24.734;2023-02-28T10:49:27;36.27;;;22.77;;
6834;SDS011;3455;42.150;24.734;2023-02-28T10:51:55;31.23;;;23.80;;
6834;SDS011;3455;42.150;24.734;2023-02-28T10:54:24;28.20;;;21.70;;
6834;SDS011;3455;42.150;24.734;2023-02-28T10:57:08;23.57;;;20.03;;
6834;SDS011;3455;42.150;24.734;2023-02-28T10:59:42;28.93;;;21.37;;
6834;SDS011;3455;42.150;24.734;2023-02-28T11:05:00;25.70;;;20.00;;
6834;SDS011;3455;42.150;24.734;2023-02-28T11:07:27;24.93;;;20.70;;
6834;SDS011;3455;42.150;24.734;2023-02-28T11:09:55;30.97;;;22.00;;
6834;SDS011;3455;42.150;24.734;2023-02-28T11:12:25;24.77;;;20.17;;
6834;SDS011;3455;42.150;24.734;2023-02-28T11:14:56;24.83;;;19.27;;
6834;SDS011;3455;42.150;24.734;2023-02-28T11:17:27;27.83;;;21.10;;
6834;SDS011;3455;42.150;24.734;2023-02-28T11:19:56;76.47;;;50.07;;
6834;SDS011;3455;42.150;24.734;2023-02-28T11:22:28;24.90;;;20.10;;
6834;SDS011;3455;42.150;24.734;2023-02-28T11:24:59;27.93;;;20.37;;
6834;SDS011;3455;42.150;24.734;2023-02-28T11:27:42;31.93;;;20.43;;
6834;SDS011;3455;42.150;24.734;2023-02-28T11:30:26;30.87;;;19.47;;
6834;SDS011;3455;42.150;24.734;2023-02-28T11:32:56;26.10;;;19.63;;
6834;SDS011;3455;42.150;24.734;2023-02-28T11:35:23;23.67;;;18.63;;
6834;SDS011;3455;42.150;24.734;2023-02-28T11:37:53;23.07;;;18.93;;
6834;SDS011;3455;42.150;24.734;2023-02-28T11:40:22;27.87;;;19.47;;
6834;SDS011;3455;42.150;24.734;2023-02-28T11:43:06;31.27;;;22.27;;
6834;SDS011;3455;42.150;24.734;2023-02-28T11:45:44;28.13;;;21.33;;
6834;SDS011;3455;42.150;24.734;2023-02-28T11:48:21;27.70;;;21.83;;
6834;SDS011;3455;42.150;24.734;2023-02-28T11:50:57;27.20;;;21.07;;
6834;SDS011;3455;42.150;24.734;2023-02-28T11:53:42;27.00;;;20.83;;
6834;SDS011;3455;42.150;24.734;2023-02-28T11:56:22;28.30;;;22.33;;
6834;SDS011;3455;42.150;24.734;2023-02-28T11:58:58;29.27;;;22.57;;
6834;SDS011;3455;42.150;24.734;2023-02-28T12:01:41;32.60;;;24.50;;
6834;SDS011;3455;42.150;24.734;2023-02-28T12:04:25;41.07;;;26.87;;
6834;SDS011;3455;42.150;24.734;2023-02-28T12:07:00;38.83;;;27.90;;
6834;SDS011;3455;42.150;24.734;2023-02-28T12:09:42;64.13;;;39.37;;
6834;SDS011;3455;42.150;24.734;2023-02-28T12:12:21;42.07;;;29.37;;
6834;SDS011;3455;42.150;24.734;2023-02-28T12:15:05;34.97;;;26.93;;
6834;SDS011;3455;42.150;24.734;2023-02-28T12:17:51;48.73;;;29.37;;
6834;SDS011;3455;42.150;24.734;2023-02-28T12:20:27;35.60;;;24.90;;
6834;SDS011;3455;42.150;24.734;2023-02-28T12:23:07;32.07;;;23.40;;
6834;SDS011;3455;42.150;24.734;2023-02-28T12:25:52;39.60;;;26.03;;
6834;SDS011;3455;42.150;24.734;2023-02-28T12:28:29;43.93;;;27.13;;
6834;SDS011;3455;42.150;24.734;2023-02-28T12:31:00;32.87;;;26.37;;
6834;SDS011;3455;42.150;24.734;2023-02-28T12:33:33;36.73;;;26.63;;
6834;SDS011;3455;42.150;24.734;2023-02-28T12:36:03;41.90;;;27.83;;
6834;SDS011;3455;42.150;24.734;2023-02-28T12:38:38;41.63;;;27.97;;
6834;SDS011;3455;42.150;24.734;2023-02-28T12:41:10;39.90;;;28.03;;
6834;SDS011;3455;42.150;24.734;2023-02-28T12:43:40;35.83;;;27.73;;
6834;SDS011;3455;42.150;24.734;2023-02-28T12:46:11;44.17;;;29.63;;
6834;SDS011;3455;42.150;24.734;2023-02-28T12:48:42;41.43;;;28.30;;
6834;SDS011;3455;42.150;24.734;2023-02-28T12:51:12;47.37;;;28.93;;
6834;SDS011;3455;42.150;24.734;2023-02-28T12:53:45;39.37;;;28.33;;
6834;SDS011;3455;42.150;24.734;2023-02-28T12:56:24;44.87;;;28.43;;
6834;SDS011;3455;42.150;24.734;2023-02-28T12:59:01;39.03;;;28.47;;
6834;SDS011;3455;42.150;24.734;2023-02-28T13:01:46;31.40;;;26.30;;
6834;SDS011;3455;42.150;24.734;2023-02-28T13:07:45;36.33;;;26.20;;
6834;SDS011;3455;42.150;24.734;2023-02-28T13:10:23;37.43;;;27.17;;
6834;SDS011;3455;42.150;24.734;2023-02-28T13:12:53;35.60;;;27.03;;
6834;SDS011;3455;42.150;24.734;2023-02-28T13:15:22;41.63;;;27.63;;
6834;SDS011;3455;42.150;24.734;2023-02-28T13:17:51;36.60;;;25.57;;
6834;SDS011;3455;42.150;24.734;2023-02-28T13:20:20;39.13;;;26.67;;
6834;SDS011;3455;42.150;24.734;2023-02-28T13:22:49;31.67;;;26.07;;
6834;SDS011;3455;42.150;24.734;2023-02-28T13:31:28;36.90;;;24.60;;
6834;SDS011;3455;42.150;24.734;2023-02-28T13:34:04;34.47;;;24.03;;
6834;SDS011;3455;42.150;24.734;2023-02-28T13:36:38;32.40;;;23.43;;
6834;SDS011;3455;42.150;24.734;2023-02-28T13:39:44;32.60;;;23.73;;
6834;SDS011;3455;42.150;24.734;2023-02-28T13:42:22;31.57;;;23.27;;
6834;SDS011;3455;42.150;24.734;2023-02-28T13:47:55;30.13;;;25.03;;
6834;SDS011;3455;42.150;24.734;2023-02-28T13:50:29;37.10;;;26.00;;
6834;SDS011;3455;42.150;24.734;2023-02-28T13:56:20;39.80;;;26.20;;
6834;SDS011;3455;42.150;24.734;2023-02-28T13:58:54;37.00;;;28.47;;
6834;SDS011;3455;42.150;24.734;2023-02-28T14:01:36;39.10;;;26.80;;
6834;SDS011;3455;42.150;24.734;2023-02-28T14:07:18;35.03;;;26.53;;
6834;SDS011;3455;42.150;24.734;2023-02-28T14:09:51;39.07;;;28.47;;
6834;SDS011;3455;42.150;24.734;2023-02-28T14:18:25;32.60;;;24.73;;
6834;SDS011;3455;42.150;24.734;2023-02-28T14:20:59;32.97;;;24.10;;
6834;SDS011;3455;42.150;24.734;2023-02-28T14:23:41;26.80;;;21.93;;
6834;SDS011;3455;42.150;24.734;2023-02-28T14:26:19;25.47;;;21.03;;
6834;SDS011;3455;42.150;24.734;2023-02-28T14:29:23;27.20;;;21.73;;
6834;SDS011;3455;42.150;24.734;2023-02-28T14:32:03;25.77;;;21.60;;
6834;SDS011;3455;42.150;24.734;2023-02-28T14:34:39;34.23;;;23.53;;
6834;SDS011;3455;42.150;24.734;2023-02-28T14:37:18;25.00;;;22.23;;
6834;SDS011;3455;42.150;24.734;2023-02-28T14:39:49;26.47;;;22.73;;
6834;SDS011;3455;42.150;24.734;2023-02-28T14:42:25;30.53;;;23.20;;
6834;SDS011;3455;42.150;24.734;2023-02-28T14:44:54;25.80;;;21.47;;
6834;SDS011;3455;42.150;24.734;2023-02-28T14:47:22;23.70;;;21.03;;
6834;SDS011;3455;42.150;24.734;2023-02-28T14:49:52;27.93;;;24.33;;
6834;SDS011;3455;42.150;24.734;2023-02-28T14:52:21;35.67;;;26.33;;
6834;SDS011;3455;42.150;24.734;2023-02-28T14:54:51;26.10;;;22.17;;
6834;SDS011;3455;42.150;24.734;2023-02-28T14:57:20;28.87;;;22.47;;
6834;SDS011;3455;42.150;24.734;2023-02-28T14:59:56;28.53;;;23.00;;
6834;SDS011;3455;42.150;24.734;2023-02-28T15:02:25;27.60;;;23.30;;
6834;SDS011;3455;42.150;24.734;2023-02-28T15:04:53;31.10;;;23.83;;
6834;SDS011;3455;42.150;24.734;2023-02-28T15:07:22;27.37;;;22.77;;
6834;SDS011;3455;42.150;24.734;2023-02-28T15:10:06;29.97;;;23.93;;
6834;SDS011;3455;42.150;24.734;2023-02-28T15:12:39;25.87;;;21.60;;
6834;SDS011;3455;42.150;24.734;2023-02-28T15:15:14;29.03;;;22.80;;
6834;SDS011;3455;42.150;24.734;2023-02-28T15:17:43;25.33;;;22.00;;
6834;SDS011;3455;42.150;24.734;2023-02-28T15:20:13;24.53;;;21.33;;
6834;SDS011;3455;42.150;24.734;2023-02-28T15:22:43;24.17;;;19.67;;
6834;SDS011;3455;42.150;24.734;2023-02-28T15:25:13;23.93;;;19.83;;
6834;SDS011;3455;42.150;24.734;2023-02-28T15:27:45;23.23;;;20.33;;
6834;SDS011;3455;42.150;24.734;2023-02-28T15:30:15;22.63;;;18.53;;
6834;SDS011;3455;42.150;24.734;2023-02-28T15:32:44;21.63;;;18.87;;
6834;SDS011;3455;42.150;24.734;2023-02-28T15:35:18;20.40;;;16.87;;
6834;SDS011;3455;42.150;24.734;2023-02-28T15:37:54;22.00;;;17.73;;
6834;SDS011;3455;42.150;24.734;2023-02-28T15:40:23;21.43;;;17.90;;